createdAt,value
2022-12-05T00:01:17.270Z,3.60
2022-12-05T00:03:48.635Z,3.50
2022-12-05T00:06:23.102Z,3.50
2022-12-05T00:08:54.152Z,3.50
2022-12-05T00:11:26.961Z,3.70
2022-12-05T00:14:02.383Z,3.70
2022-12-05T00:16:34.910Z,3.90
2022-12-05T00:19:07.315Z,3.80
2022-12-05T00:21:39.981Z,3.70
2022-12-05T00:24:14.103Z,3.80
2022-12-05T00:26:47.135Z,3.80
2022-12-05T00:29:21.129Z,3.80
2022-12-05T00:31:52.265Z,3.70
2022-12-05T00:34:23.022Z,3.60
2022-12-05T00:36:54.074Z,3.90
2022-12-05T00:39:24.929Z,3.70
2022-12-05T00:41:57.809Z,3.60
2022-12-05T00:44:32.626Z,3.60
2022-12-05T00:47:04.474Z,3.60
2022-12-05T00:49:35.385Z,3.60
2022-12-05T00:52:06.454Z,3.70
2022-12-05T00:54:38.270Z,3.70
2022-12-05T00:57:09.503Z,3.60
2022-12-05T00:59:43.295Z,3.50
2022-12-05T01:02:16.354Z,3.60
2022-12-05T01:04:49.450Z,4.20
2022-12-05T01:07:20.225Z,3.70
2022-12-05T01:09:51.386Z,3.70
2022-12-05T01:12:22.156Z,3.80
2022-12-05T01:14:55.500Z,3.70
2022-12-05T01:17:26.344Z,3.80
2022-12-05T01:19:57.663Z,3.70
2022-12-05T01:22:28.580Z,3.70
2022-12-05T01:24:59.397Z,3.80
2022-12-05T01:27:31.534Z,3.80
2022-12-05T01:30:07.891Z,3.70
2022-12-05T01:32:38.829Z,3.70
2022-12-05T01:35:10.626Z,3.70
2022-12-05T01:37:41.503Z,3.80
2022-12-05T01:40:14.585Z,3.80
2022-12-05T01:42:46.648Z,3.80
2022-12-05T01:45:26.477Z,3.80
2022-12-05T01:47:57.608Z,3.80
2022-12-05T01:50:29.927Z,3.80
2022-12-05T01:53:01.597Z,4.10
2022-12-05T01:55:32.681Z,3.90
2022-12-05T01:58:04.653Z,3.90
2022-12-05T02:00:38.191Z,3.80
2022-12-05T02:03:12.295Z,3.80
2022-12-05T02:05:43.394Z,3.80
2022-12-05T02:08:14.797Z,3.80
2022-12-05T02:10:53.025Z,3.80
2022-12-05T02:13:39.699Z,3.80
2022-12-05T02:16:22.171Z,3.80
2022-12-05T02:19:02.919Z,3.90
2022-12-05T02:22:08.697Z,3.80
2022-12-05T02:25:18.668Z,3.90
2022-12-05T02:28:21.730Z,3.80
2022-12-05T02:30:59.978Z,3.80
2022-12-05T02:33:38.375Z,3.80
2022-12-05T02:36:14.270Z,3.80
2022-12-05T02:38:53.854Z,3.70
2022-12-05T02:41:30.525Z,3.80
2022-12-05T02:44:05.967Z,3.90
2022-12-05T02:46:42.972Z,3.80
2022-12-05T02:49:17.600Z,3.70
2022-12-05T02:51:52.850Z,3.70
2022-12-05T02:54:27.324Z,3.70
2022-12-05T02:56:59.155Z,3.70
2022-12-05T02:59:29.958Z,3.80
2022-12-05T03:02:05.634Z,3.80
2022-12-05T03:04:37.006Z,3.70
2022-12-05T03:07:12.964Z,3.70
2022-12-05T03:09:48.294Z,3.80
2022-12-05T03:12:25.406Z,3.90
2022-12-05T03:14:59.483Z,3.90
2022-12-05T03:17:35.727Z,3.90
2022-12-05T03:20:10.013Z,3.70
2022-12-05T03:22:49.930Z,3.80
2022-12-05T03:25:21.539Z,3.90
2022-12-05T03:27:56.007Z,3.90
2022-12-05T03:30:26.977Z,3.90
2022-12-05T03:33:09.450Z,3.90
2022-12-05T03:35:46.490Z,3.90
2022-12-05T03:38:19.799Z,3.90
2022-12-05T03:40:55.855Z,3.90
2022-12-05T03:43:37.127Z,3.80
2022-12-05T03:46:12.190Z,3.80
2022-12-05T03:48:55.032Z,3.70
2022-12-05T03:51:30.902Z,3.70
2022-12-05T03:54:06.192Z,3.80
2022-12-05T03:56:41.054Z,4.10
2022-12-05T03:59:19.290Z,3.80
2022-12-05T04:01:51.519Z,3.80
2022-12-05T04:04:30.889Z,3.70
2022-12-05T04:07:05.997Z,3.70
2022-12-05T04:09:41.110Z,3.80
2022-12-05T04:12:19.874Z,3.80
2022-12-05T04:14:54.443Z,3.70
2022-12-05T04:17:30.513Z,3.70
2022-12-05T04:20:19.709Z,3.80
2022-12-05T04:22:51.127Z,3.80
2022-12-05T04:25:35.050Z,3.90
2022-12-05T04:28:23.722Z,3.90
2022-12-05T04:31:06.198Z,3.90
2022-12-05T04:33:44.181Z,3.80
2022-12-05T04:36:22.122Z,3.80
2022-12-05T04:38:57.780Z,3.90
2022-12-05T04:41:31.663Z,4.00
2022-12-05T04:44:08.514Z,4.00
2022-12-05T04:46:40.907Z,3.90
2022-12-05T04:49:15.323Z,4.00
2022-12-05T04:51:52.992Z,4.00
2022-12-05T04:54:29.133Z,4.10
2022-12-05T04:57:07.863Z,3.90
2022-12-05T04:59:38.790Z,4.00
2022-12-05T05:02:16.562Z,3.90
2022-12-05T05:04:51.083Z,3.90
2022-12-05T05:07:25.124Z,3.90
2022-12-05T05:09:56.153Z,4.00
2022-12-05T05:12:27.164Z,3.90
2022-12-05T05:14:57.935Z,3.80
2022-12-05T05:17:28.912Z,3.80
2022-12-05T05:20:22.387Z,3.90
2022-12-05T05:22:58.354Z,4.00
2022-12-05T05:25:29.469Z,4.00
2022-12-05T05:28:00.220Z,3.90
2022-12-05T05:30:31.571Z,3.90
2022-12-05T05:33:02.640Z,4.00
2022-12-05T05:35:33.698Z,4.00
2022-12-05T05:38:11.482Z,3.90
2022-12-05T05:40:42.276Z,3.90
2022-12-05T05:43:13.180Z,3.90
2022-12-05T05:45:45.346Z,3.90
2022-12-05T05:48:18.860Z,3.90
2022-12-05T05:50:51.002Z,3.90
2022-12-05T05:53:24.401Z,3.90
2022-12-05T05:55:55.153Z,4.00
2022-12-05T05:58:25.947Z,3.90
2022-12-05T06:00:57.159Z,3.90
2022-12-05T06:03:28.133Z,3.90
2022-12-05T06:06:02.822Z,3.90
2022-12-05T06:08:38.322Z,4.00
2022-12-05T06:11:10.494Z,3.90
2022-12-05T06:13:41.767Z,3.80
2022-12-05T06:16:17.103Z,3.80
2022-12-05T06:18:49.235Z,3.80
2022-12-05T06:21:20.192Z,3.70
2022-12-05T06:23:54.203Z,3.60
2022-12-05T06:26:25.687Z,3.50
2022-12-05T06:28:56.879Z,3.50
2022-12-05T06:31:31.732Z,3.60
2022-12-05T06:34:05.371Z,3.60
2022-12-05T06:36:39.448Z,3.60
2022-12-05T06:39:12.845Z,3.60
2022-12-05T06:41:43.618Z,3.50
2022-12-05T06:44:14.974Z,3.50
2022-12-05T06:46:45.750Z,3.60
2022-12-05T06:49:16.601Z,3.50
2022-12-05T06:51:47.412Z,3.30
2022-12-05T06:54:21.007Z,3.40
2022-12-05T06:56:51.730Z,3.40
2022-12-05T06:59:22.499Z,3.40
2022-12-05T07:01:51.807Z,3.40
2022-12-05T07:04:26.211Z,3.30
2022-12-05T07:07:00.943Z,3.20
2022-12-05T07:09:49.257Z,3.20
2022-12-05T07:12:21.909Z,3.30
2022-12-05T07:14:53.329Z,3.30
2022-12-05T07:17:24.617Z,3.20
2022-12-05T07:19:56.669Z,3.10
2022-12-05T07:22:27.838Z,3.50
2022-12-05T07:25:01.296Z,3.10
2022-12-05T07:27:35.829Z,3.00
2022-12-05T07:30:07.713Z,3.00
2022-12-05T07:32:39.045Z,2.90
2022-12-05T07:35:10.584Z,3.00
2022-12-05T07:37:41.336Z,3.00
2022-12-05T07:40:16.146Z,3.10
2022-12-05T07:42:46.922Z,3.10
2022-12-05T07:45:18.109Z,3.10
2022-12-05T07:47:49.023Z,3.00
2022-12-05T07:50:20.102Z,3.00
2022-12-05T07:52:51.267Z,3.10
2022-12-05T07:55:24.763Z,3.10
2022-12-05T07:57:55.546Z,3.10
2022-12-05T08:00:26.990Z,3.10
2022-12-05T08:02:59.535Z,3.10
2022-12-05T08:05:30.678Z,3.10
2022-12-05T08:08:01.476Z,3.20
2022-12-05T08:10:35.098Z,3.30
2022-12-05T08:13:08.009Z,3.30
2022-12-05T08:15:46.392Z,3.60
2022-12-05T08:18:17.219Z,3.20
2022-12-05T08:20:47.971Z,3.20
2022-12-05T08:23:18.771Z,3.20
2022-12-05T08:25:54.634Z,3.20
2022-12-05T08:28:25.549Z,3.30
2022-12-05T08:30:56.822Z,3.30
2022-12-05T08:33:27.636Z,3.10
2022-12-05T08:35:58.693Z,3.30
2022-12-05T08:38:29.477Z,3.40
2022-12-05T08:41:04.731Z,3.40
2022-12-05T08:43:36.372Z,3.40
2022-12-05T08:46:07.684Z,3.40
2022-12-05T08:48:39.224Z,3.40
2022-12-05T08:51:11.656Z,3.40
2022-12-05T08:53:44.993Z,3.40
2022-12-05T08:56:23.444Z,3.40
2022-12-05T08:59:04.736Z,3.50
2022-12-05T09:01:38.816Z,3.40
2022-12-05T09:04:10.298Z,3.40
2022-12-05T09:06:42.417Z,3.40
2022-12-05T09:09:15.333Z,3.40
2022-12-05T09:11:51.060Z,3.40
2022-12-05T09:14:24.345Z,3.40
2022-12-05T09:16:55.173Z,3.70
2022-12-05T09:19:27.630Z,3.50
2022-12-05T09:22:03.391Z,3.40
2022-12-05T09:24:35.877Z,3.40
2022-12-05T09:27:09.593Z,3.40
2022-12-05T09:29:41.115Z,3.40
2022-12-05T09:32:12.613Z,3.50
2022-12-05T09:34:43.546Z,3.50
2022-12-05T09:37:37.658Z,3.50
2022-12-05T09:40:07.610Z,3.80
2022-12-05T09:42:52.351Z,3.50
2022-12-05T09:45:28.657Z,3.60
2022-12-05T09:48:03.027Z,3.60
2022-12-05T09:50:37.766Z,3.60
2022-12-05T09:53:14.112Z,3.60
2022-12-05T09:55:51.509Z,3.70
2022-12-05T09:58:29.628Z,3.70
2022-12-05T10:01:11.275Z,3.60
2022-12-05T10:03:49.720Z,3.60
2022-12-05T10:06:24.872Z,3.60
2022-12-05T10:09:13.615Z,3.50
2022-12-05T10:11:50.464Z,3.50
2022-12-05T10:14:32.918Z,3.50
2022-12-05T10:17:11.443Z,3.50
2022-12-05T10:19:47.000Z,3.50
2022-12-05T10:22:21.801Z,3.60
2022-12-05T10:24:56.173Z,3.50
2022-12-05T10:27:40.008Z,3.50
2022-12-05T10:30:18.007Z,3.50
2022-12-05T10:32:55.052Z,3.50
2022-12-05T10:35:28.183Z,3.50
2022-12-05T10:38:01.731Z,3.50
2022-12-05T10:40:38.695Z,3.50
2022-12-05T10:43:11.059Z,3.50
2022-12-05T10:45:48.192Z,3.50
2022-12-05T10:48:20.857Z,3.40
2022-12-05T10:50:54.608Z,3.30
2022-12-05T10:53:31.308Z,3.40
2022-12-05T10:58:58.499Z,3.50
2022-12-05T11:01:33.982Z,3.50
2022-12-05T11:04:13.920Z,3.50
2022-12-05T11:06:53.929Z,3.40
2022-12-05T11:09:26.831Z,3.50
2022-12-05T11:12:06.371Z,3.40
2022-12-05T11:14:39.900Z,3.40
2022-12-05T11:17:27.525Z,3.40
2022-12-05T11:19:58.319Z,3.40
2022-12-05T11:22:38.662Z,3.40
2022-12-05T11:25:28.036Z,3.40
2022-12-05T11:28:03.261Z,3.40
2022-12-05T11:30:34.122Z,3.30
2022-12-05T11:33:23.862Z,3.40
2022-12-05T11:35:57.372Z,3.20
2022-12-05T11:38:32.781Z,3.30
2022-12-05T11:41:22.259Z,3.30
2022-12-05T11:44:08.209Z,3.30
2022-12-05T11:46:49.835Z,3.30
2022-12-05T11:49:47.916Z,3.30
2022-12-05T11:52:34.745Z,3.30
2022-12-05T11:55:19.317Z,3.30
2022-12-05T11:58:15.002Z,3.30
2022-12-05T12:00:59.452Z,3.30
2022-12-05T12:04:01.934Z,3.30
2022-12-05T12:06:46.448Z,3.30
2022-12-05T12:09:36.937Z,3.30
2022-12-05T12:12:17.586Z,3.30
2022-12-05T12:14:57.567Z,3.30
2022-12-05T12:17:36.831Z,3.20
2022-12-05T12:20:35.119Z,3.30
2022-12-05T12:23:26.164Z,3.20
2022-12-05T12:26:10.585Z,3.30
2022-12-05T12:28:46.592Z,3.30
2022-12-05T12:31:55.274Z,3.20
2022-12-05T12:34:39.660Z,3.20
2022-12-05T12:37:19.784Z,3.20
2022-12-05T12:39:55.453Z,3.20
2022-12-05T12:42:28.937Z,3.20
2022-12-05T12:45:46.035Z,3.30
2022-12-05T12:48:31.464Z,2.70
2022-12-05T12:51:05.398Z,3.30
2022-12-05T12:53:59.486Z,3.20
2022-12-05T12:56:42.709Z,3.20
2022-12-05T12:59:30.997Z,3.20
2022-12-05T13:02:08.318Z,3.20
2022-12-05T13:04:46.693Z,3.50
2022-12-05T13:07:26.050Z,3.30
2022-12-05T13:10:02.219Z,3.20
2022-12-05T13:12:41.914Z,3.20
2022-12-05T13:15:18.086Z,3.30
2022-12-05T13:17:50.648Z,3.30
2022-12-05T13:20:24.504Z,3.30
2022-12-05T13:22:56.476Z,3.70
2022-12-05T13:25:33.645Z,3.30
2022-12-05T13:28:12.567Z,3.30
2022-12-05T13:31:01.976Z,3.30
2022-12-05T13:33:38.713Z,3.30
2022-12-05T13:36:25.237Z,3.30
2022-12-05T13:39:14.108Z,3.30
2022-12-05T13:41:59.785Z,3.30
2022-12-05T13:44:39.062Z,3.30
2022-12-05T13:47:29.455Z,3.20
2022-12-05T13:50:07.241Z,3.20
2022-12-05T13:52:45.447Z,3.20
2022-12-05T13:55:25.318Z,3.20
2022-12-05T13:57:57.832Z,3.20
2022-12-05T14:00:40.450Z,3.20
2022-12-05T14:03:21.971Z,3.20
2022-12-05T14:05:55.936Z,3.20
2022-12-05T14:09:06.166Z,3.20
2022-12-05T14:11:36.910Z,3.20
2022-12-05T14:14:13.063Z,3.20
2022-12-05T14:16:54.945Z,3.20
2022-12-05T14:20:09.042Z,3.20
2022-12-05T14:23:07.440Z,3.20
2022-12-05T14:25:57.928Z,3.20
2022-12-05T14:28:44.067Z,3.10
2022-12-05T14:31:34.478Z,3.20
2022-12-05T14:34:18.996Z,3.20
2022-12-05T14:36:58.818Z,3.10
2022-12-05T14:39:43.248Z,3.10
2022-12-05T14:42:27.972Z,3.50
2022-12-05T14:45:02.246Z,3.10
2022-12-05T14:47:35.698Z,3.10
2022-12-05T14:50:36.830Z,3.10
2022-12-05T14:53:30.257Z,3.10
2022-12-05T14:56:13.429Z,3.10
2022-12-05T14:58:49.017Z,3.10
2022-12-05T15:01:25.848Z,3.10
2022-12-05T15:04:21.416Z,3.20
2022-12-05T15:06:58.494Z,3.20
2022-12-05T15:09:55.625Z,3.10
2022-12-05T15:12:29.653Z,3.10
2022-12-05T15:15:07.168Z,3.10
2022-12-05T15:17:44.690Z,3.10
2022-12-05T15:20:22.399Z,3.10
2022-12-05T15:22:55.947Z,3.40
2022-12-05T15:25:32.319Z,3.10
2022-12-05T15:28:07.341Z,3.10
2022-12-05T15:30:40.864Z,3.20
2022-12-05T15:33:15.359Z,3.10
2022-12-05T15:35:51.668Z,3.20
2022-12-05T15:38:30.607Z,3.10
2022-12-05T15:41:01.847Z,3.20
2022-12-05T15:43:34.525Z,3.10
2022-12-05T15:46:24.416Z,3.00
2022-12-05T15:48:56.852Z,3.10
2022-12-05T15:51:34.585Z,3.10
2022-12-05T15:54:14.427Z,3.20
2022-12-05T15:56:50.618Z,3.10
2022-12-05T15:59:24.770Z,3.10
2022-12-05T16:02:02.400Z,3.10
2022-12-05T16:04:36.581Z,3.10
2022-12-05T16:07:11.641Z,3.00
2022-12-05T16:09:47.400Z,3.10
2022-12-05T16:12:28.902Z,3.10
2022-12-05T16:15:04.900Z,3.10
2022-12-05T16:17:45.414Z,3.10
2022-12-05T16:20:32.813Z,3.10
2022-12-05T16:23:05.870Z,3.10
2022-12-05T16:25:39.888Z,3.10
2022-12-05T16:28:20.171Z,3.10
2022-12-05T16:31:04.854Z,3.10
2022-12-05T16:33:40.285Z,3.00
2022-12-05T16:36:16.314Z,3.30
2022-12-05T16:38:47.349Z,3.10
2022-12-05T16:41:25.331Z,3.00
2022-12-05T16:43:58.461Z,3.00
2022-12-05T16:46:45.811Z,3.00
2022-12-05T16:49:28.289Z,3.00
2022-12-05T16:52:02.852Z,3.00
2022-12-05T16:54:33.796Z,3.00
2022-12-05T16:57:07.662Z,2.80
2022-12-05T16:59:42.040Z,3.10
2022-12-05T17:02:17.170Z,3.10
2022-12-05T17:04:48.547Z,3.10
2022-12-05T17:07:19.267Z,3.50
2022-12-05T17:09:50.043Z,3.10
2022-12-05T17:12:27.023Z,3.10
2022-12-05T17:14:58.446Z,3.10
2022-12-05T17:17:30.390Z,3.10
2022-12-05T17:20:03.348Z,3.00
2022-12-05T17:22:34.480Z,2.80
2022-12-05T17:25:19.333Z,3.00
2022-12-05T17:27:54.070Z,3.00
2022-12-05T17:30:24.854Z,3.00
2022-12-05T17:32:55.853Z,3.00
2022-12-05T17:35:30.580Z,2.90
2022-12-05T17:38:02.394Z,2.90
2022-12-05T17:40:33.224Z,3.00
2022-12-05T17:43:09.786Z,3.00
2022-12-05T17:45:40.539Z,2.90
2022-12-05T17:48:17.535Z,2.90
2022-12-05T17:50:50.872Z,2.80
2022-12-05T17:53:25.167Z,2.80
2022-12-05T17:55:55.981Z,2.90
2022-12-05T17:58:29.326Z,2.80
2022-12-05T18:01:01.288Z,2.70
2022-12-05T18:03:32.256Z,2.80
2022-12-05T18:06:03.878Z,2.80
2022-12-05T18:08:34.997Z,2.80
2022-12-05T18:11:08.304Z,2.80
2022-12-05T18:13:41.825Z,2.80
2022-12-05T18:16:12.655Z,2.80
2022-12-05T18:18:45.586Z,2.80
2022-12-05T18:21:16.346Z,2.80
2022-12-05T18:23:49.409Z,2.90
2022-12-05T18:26:20.691Z,2.90
2022-12-05T18:28:56.802Z,2.90
2022-12-05T18:31:28.305Z,2.90
2022-12-05T18:34:00.263Z,2.90
2022-12-05T18:36:31.040Z,2.90
2022-12-05T18:39:02.727Z,2.90
2022-12-05T18:41:33.640Z,2.90
2022-12-05T18:44:08.353Z,2.90
2022-12-05T18:46:39.835Z,2.90
2022-12-05T18:49:10.962Z,2.80
2022-12-05T18:51:44.104Z,2.90
2022-12-05T18:54:19.507Z,3.20
2022-12-05T18:56:52.734Z,2.80
2022-12-05T18:59:26.222Z,2.90
2022-12-05T19:01:59.771Z,2.90
2022-12-05T19:04:32.479Z,2.80
2022-12-05T19:07:04.603Z,2.80
2022-12-05T19:09:40.505Z,2.80
2022-12-05T19:12:11.337Z,2.80
2022-12-05T19:14:45.629Z,2.90
2022-12-05T19:17:16.506Z,2.90
2022-12-05T19:19:47.301Z,2.90
2022-12-05T19:22:18.515Z,2.90
2022-12-05T19:24:49.569Z,2.90
2022-12-05T19:27:25.270Z,2.90
2022-12-05T19:29:59.015Z,2.90
2022-12-05T19:32:30.101Z,3.30
2022-12-05T19:35:01.117Z,2.90
2022-12-05T19:37:34.222Z,2.90
2022-12-05T19:40:05.087Z,2.80
2022-12-05T19:42:36.009Z,2.90
2022-12-05T19:45:14.987Z,2.90
2022-12-05T19:47:49.629Z,3.00
2022-12-05T19:50:20.499Z,3.30
2022-12-05T19:52:51.478Z,3.30
2022-12-05T19:55:25.023Z,3.00
2022-12-05T19:57:55.752Z,3.00
2022-12-05T20:00:29.434Z,3.10
2022-12-05T20:03:00.556Z,2.90
2022-12-05T20:05:34.316Z,2.90
2022-12-05T20:08:05.258Z,2.90
2022-12-05T20:10:39.882Z,2.80
2022-12-05T20:13:44.835Z,2.80
2022-12-05T20:16:07.327Z,3.20
2022-12-05T20:18:40.422Z,2.80
2022-12-05T20:21:16.099Z,2.80
2022-12-05T20:23:47.602Z,2.90
2022-12-05T20:26:20.646Z,2.90
2022-12-05T20:28:51.685Z,2.90
2022-12-05T20:31:30.083Z,2.90
2022-12-05T20:34:04.091Z,3.50
2022-12-05T20:36:37.071Z,2.90
2022-12-05T20:39:09.861Z,2.80
2022-12-05T20:41:41.327Z,3.20
2022-12-05T20:44:16.048Z,2.90
2022-12-05T20:46:52.598Z,2.80
2022-12-05T20:49:23.495Z,2.90
2022-12-05T20:51:54.304Z,3.00
2022-12-05T20:54:25.104Z,3.00
2022-12-05T20:56:56.559Z,3.20
2022-12-05T20:59:27.734Z,2.60
2022-12-05T21:02:03.609Z,3.40
2022-12-05T21:04:38.981Z,2.90
2022-12-05T21:07:09.738Z,2.90
2022-12-05T21:09:42.373Z,2.90
2022-12-05T21:12:13.197Z,2.90
2022-12-05T21:14:43.940Z,2.80
2022-12-05T21:17:17.295Z,2.80
2022-12-05T21:19:48.237Z,2.80
2022-12-05T21:22:18.954Z,2.80
2022-12-05T21:24:50.103Z,2.80
2022-12-05T21:27:20.819Z,2.80
2022-12-05T21:29:51.543Z,2.80
2022-12-05T21:32:26.501Z,2.80
2022-12-05T21:34:58.543Z,2.80
2022-12-05T21:37:29.359Z,2.80
2022-12-05T21:40:00.467Z,2.80
2022-12-05T21:42:34.762Z,2.70
2022-12-05T21:45:06.387Z,2.70
2022-12-05T21:47:39.787Z,2.80
2022-12-05T21:50:11.767Z,2.80
2022-12-05T21:52:43.855Z,2.80
2022-12-05T21:55:14.569Z,2.80
2022-12-05T21:57:45.377Z,2.90
2022-12-05T22:00:17.309Z,2.80
2022-12-05T22:02:50.759Z,2.80
2022-12-05T22:05:24.637Z,3.00
2022-12-05T22:07:55.455Z,2.60
2022-12-05T22:10:26.335Z,2.80
2022-12-05T22:12:57.039Z,3.00
2022-12-05T22:15:31.497Z,2.90
2022-12-05T22:18:04.910Z,2.60
2022-12-05T22:20:36.729Z,2.90
2022-12-05T22:23:10.145Z,2.80
2022-12-05T22:25:43.205Z,2.80
2022-12-05T22:28:13.960Z,3.00
2022-12-05T22:30:49.489Z,2.80
2022-12-05T22:33:26.795Z,2.80
2022-12-05T22:35:59.548Z,3.20
2022-12-05T22:38:32.998Z,2.80
2022-12-05T22:41:05.522Z,2.80
2022-12-05T22:43:37.940Z,2.80
2022-12-05T22:46:09.861Z,2.90
2022-12-05T22:48:45.407Z,2.90
2022-12-05T22:51:35.128Z,3.00
2022-12-05T22:54:06.312Z,3.00
2022-12-05T22:56:37.370Z,3.00
2022-12-05T22:59:12.973Z,3.00
2022-12-05T23:01:45.207Z,3.00
2022-12-05T23:04:20.192Z,3.10
2022-12-05T23:06:51.233Z,3.00
2022-12-05T23:09:22.167Z,2.90
2022-12-05T23:11:53.309Z,3.40
2022-12-05T23:14:24.312Z,3.00
2022-12-05T23:16:55.535Z,3.10
2022-12-05T23:19:30.436Z,3.00
2022-12-05T23:22:03.816Z,3.00
2022-12-05T23:24:37.756Z,3.00
2022-12-05T23:27:09.021Z,3.30
2022-12-05T23:29:40.199Z,2.90
2022-12-05T23:32:11.325Z,3.00
2022-12-05T23:34:44.884Z,3.00
2022-12-05T23:37:15.825Z,3.00
2022-12-05T23:39:47.444Z,3.40
2022-12-05T23:42:18.319Z,2.90
2022-12-05T23:44:49.230Z,3.00
2022-12-05T23:47:20.267Z,3.00
2022-12-05T23:49:53.840Z,3.10
2022-12-05T23:52:24.719Z,3.40
2022-12-05T23:54:55.666Z,3.10
2022-12-05T23:57:26.638Z,3.50
2022-12-05T23:59:58.152Z,3.50
